sensor_id;sensor_type;location;lat;lon;timestamp;P1;durP1;ratioP1;P2;durP2;ratioP2
2622;SDS011;1321;48.690;9.022;2023-05-14T00:02:18;18.33;;;17.23;;
2622;SDS011;1321;48.690;9.022;2023-05-14T00:04:48;18.87;;;17.97;;
2622;SDS011;1321;48.690;9.022;2023-05-14T00:07:16;18.80;;;17.80;;
2622;SDS011;1321;48.690;9.022;2023-05-14T00:09:44;18.60;;;17.80;;
2622;SDS011;1321;48.690;9.022;2023-05-14T00:12:12;18.77;;;18.00;;
2622;SDS011;1321;48.690;9.022;2023-05-14T00:14:40;18.80;;;17.90;;
2622;SDS011;1321;48.690;9.022;2023-05-14T00:17:09;18.50;;;17.60;;
2622;SDS011;1321;48.690;9.022;2023-05-14T00:19:37;19.40;;;18.40;;
2622;SDS011;1321;48.690;9.022;2023-05-14T00:22:08;19.87;;;19.07;;
2622;SDS011;1321;48.690;9.022;2023-05-14T00:24:37;18.93;;;18.20;;
2622;SDS011;1321;48.690;9.022;2023-05-14T00:27:05;20.10;;;19.23;;
2622;SDS011;1321;48.690;9.022;2023-05-14T00:29:33;19.30;;;18.40;;
2622;SDS011;1321;48.690;9.022;2023-05-14T00:32:02;19.73;;;18.93;;
2622;SDS011;1321;48.690;9.022;2023-05-14T00:34:30;19.83;;;18.93;;
2622;SDS011;1321;48.690;9.022;2023-05-14T00:36:58;19.00;;;18.10;;
2622;SDS011;1321;48.690;9.022;2023-05-14T00:39:29;19.60;;;18.53;;
2622;SDS011;1321;48.690;9.022;2023-05-14T00:41:57;19.57;;;18.67;;
2622;SDS011;1321;48.690;9.022;2023-05-14T00:44:25;19.93;;;18.93;;
2622;SDS011;1321;48.690;9.022;2023-05-14T00:46:54;19.00;;;18.10;;
2622;SDS011;1321;48.690;9.022;2023-05-14T00:49:22;19.67;;;18.87;;
2622;SDS011;1321;48.690;9.022;2023-05-14T00:51:51;20.03;;;18.80;;
2622;SDS011;1321;48.690;9.022;2023-05-14T00:54:19;20.47;;;19.53;;
2622;SDS011;1321;48.690;9.022;2023-05-14T00:56:49;19.47;;;18.67;;
2622;SDS011;1321;48.690;9.022;2023-05-14T00:59:18;19.73;;;18.73;;
2622;SDS011;1321;48.690;9.022;2023-05-14T01:01:46;19.03;;;18.13;;
2622;SDS011;1321;48.690;9.022;2023-05-14T01:04:14;19.27;;;18.37;;
2622;SDS011;1321;48.690;9.022;2023-05-14T01:06:45;19.40;;;18.40;;
2622;SDS011;1321;48.690;9.022;2023-05-14T01:09:21;18.60;;;17.80;;
2622;SDS011;1321;48.690;9.022;2023-05-14T01:11:59;19.00;;;18.20;;
2622;SDS011;1321;48.690;9.022;2023-05-14T01:14:36;19.37;;;18.47;;
2622;SDS011;1321;48.690;9.022;2023-05-14T01:17:10;19.40;;;18.50;;
2622;SDS011;1321;48.690;9.022;2023-05-14T01:19:39;19.50;;;18.30;;
2622;SDS011;1321;48.690;9.022;2023-05-14T01:22:10;20.07;;;19.07;;
2622;SDS011;1321;48.690;9.022;2023-05-14T01:24:38;20.70;;;19.60;;
2622;SDS011;1321;48.690;9.022;2023-05-14T01:27:09;18.93;;;18.07;;
2622;SDS011;1321;48.690;9.022;2023-05-14T01:29:46;20.07;;;19.10;;
2622;SDS011;1321;48.690;9.022;2023-05-14T01:32:26;19.80;;;18.87;;
2622;SDS011;1321;48.690;9.022;2023-05-14T01:34:56;19.70;;;18.80;;
2622;SDS011;1321;48.690;9.022;2023-05-14T01:37:28;19.37;;;18.37;;
2622;SDS011;1321;48.690;9.022;2023-05-14T01:39:57;20.27;;;19.20;;
2622;SDS011;1321;48.690;9.022;2023-05-14T01:42:26;19.90;;;18.80;;
2622;SDS011;1321;48.690;9.022;2023-05-14T01:44:55;20.67;;;19.67;;
2622;SDS011;1321;48.690;9.022;2023-05-14T01:47:24;20.07;;;19.17;;
2622;SDS011;1321;48.690;9.022;2023-05-14T01:49:52;18.77;;;17.97;;
2622;SDS011;1321;48.690;9.022;2023-05-14T01:52:20;19.23;;;18.33;;
2622;SDS011;1321;48.690;9.022;2023-05-14T01:54:50;19.07;;;18.10;;
2622;SDS011;1321;48.690;9.022;2023-05-14T01:57:18;18.83;;;17.93;;
2622;SDS011;1321;48.690;9.022;2023-05-14T01:59:46;19.40;;;18.10;;
2622;SDS011;1321;48.690;9.022;2023-05-14T02:02:15;20.10;;;19.10;;
2622;SDS011;1321;48.690;9.022;2023-05-14T02:04:43;19.37;;;18.47;;
2622;SDS011;1321;48.690;9.022;2023-05-14T02:07:11;19.90;;;19.00;;
2622;SDS011;1321;48.690;9.022;2023-05-14T02:09:39;19.00;;;18.00;;
2622;SDS011;1321;48.690;9.022;2023-05-14T02:12:09;19.63;;;18.73;;
2622;SDS011;1321;48.690;9.022;2023-05-14T02:14:37;20.03;;;18.90;;
2622;SDS011;1321;48.690;9.022;2023-05-14T02:17:05;18.73;;;17.93;;
2622;SDS011;1321;48.690;9.022;2023-05-14T02:19:34;20.07;;;18.87;;
2622;SDS011;1321;48.690;9.022;2023-05-14T02:22:02;19.33;;;18.30;;
2622;SDS011;1321;48.690;9.022;2023-05-14T02:24:30;20.37;;;19.37;;
2622;SDS011;1321;48.690;9.022;2023-05-14T02:26:58;20.27;;;19.27;;
2622;SDS011;1321;48.690;9.022;2023-05-14T02:29:28;19.47;;;18.57;;
2622;SDS011;1321;48.690;9.022;2023-05-14T02:31:56;19.53;;;18.53;;
2622;SDS011;1321;48.690;9.022;2023-05-14T02:34:25;20.30;;;19.10;;
2622;SDS011;1321;48.690;9.022;2023-05-14T02:36:53;20.30;;;19.23;;
2622;SDS011;1321;48.690;9.022;2023-05-14T02:39:21;20.40;;;19.43;;
2622;SDS011;1321;48.690;9.022;2023-05-14T02:41:49;20.20;;;19.10;;
2622;SDS011;1321;48.690;9.022;2023-05-14T02:44:17;20.27;;;19.17;;
2622;SDS011;1321;48.690;9.022;2023-05-14T02:46:47;20.60;;;19.47;;
2622;SDS011;1321;48.690;9.022;2023-05-14T02:49:15;20.97;;;19.67;;
2622;SDS011;1321;48.690;9.022;2023-05-14T02:51:43;21.00;;;20.00;;
2622;SDS011;1321;48.690;9.022;2023-05-14T02:54:11;21.13;;;20.10;;
2622;SDS011;1321;48.690;9.022;2023-05-14T02:56:41;20.23;;;19.17;;
2622;SDS011;1321;48.690;9.022;2023-05-14T02:59:10;20.90;;;19.70;;
2622;SDS011;1321;48.690;9.022;2023-05-14T03:01:38;21.70;;;20.60;;
2622;SDS011;1321;48.690;9.022;2023-05-14T03:04:08;21.90;;;20.30;;
2622;SDS011;1321;48.690;9.022;2023-05-14T03:06:37;20.37;;;19.37;;
2622;SDS011;1321;48.690;9.022;2023-05-14T03:09:05;20.33;;;19.37;;
2622;SDS011;1321;48.690;9.022;2023-05-14T03:11:33;19.63;;;18.63;;
2622;SDS011;1321;48.690;9.022;2023-05-14T03:14:01;20.73;;;19.73;;
2622;SDS011;1321;48.690;9.022;2023-05-14T03:16:29;21.27;;;20.10;;
2622;SDS011;1321;48.690;9.022;2023-05-14T03:18:58;21.30;;;20.10;;
2622;SDS011;1321;48.690;9.022;2023-05-14T03:21:27;21.17;;;19.97;;
2622;SDS011;1321;48.690;9.022;2023-05-14T03:23:56;22.00;;;20.70;;
2622;SDS011;1321;48.690;9.022;2023-05-14T03:26:24;21.27;;;20.10;;
2622;SDS011;1321;48.690;9.022;2023-05-14T03:28:53;21.80;;;20.60;;
2622;SDS011;1321;48.690;9.022;2023-05-14T03:31:21;21.90;;;20.60;;
2622;SDS011;1321;48.690;9.022;2023-05-14T03:33:50;21.43;;;20.33;;
2622;SDS011;1321;48.690;9.022;2023-05-14T03:36:18;22.20;;;21.00;;
2622;SDS011;1321;48.690;9.022;2023-05-14T03:38:47;20.80;;;19.70;;
2622;SDS011;1321;48.690;9.022;2023-05-14T03:41:16;21.10;;;19.90;;
2622;SDS011;1321;48.690;9.022;2023-05-14T03:43:45;21.90;;;20.60;;
2622;SDS011;1321;48.690;9.022;2023-05-14T03:46:13;21.43;;;20.33;;
2622;SDS011;1321;48.690;9.022;2023-05-14T03:48:41;23.40;;;21.90;;
2622;SDS011;1321;48.690;9.022;2023-05-14T03:51:09;21.77;;;20.67;;
2622;SDS011;1321;48.690;9.022;2023-05-14T03:53:38;21.23;;;20.10;;
2622;SDS011;1321;48.690;9.022;2023-05-14T03:56:08;22.10;;;20.80;;
2622;SDS011;1321;48.690;9.022;2023-05-14T03:58:36;22.33;;;21.00;;
2622;SDS011;1321;48.690;9.022;2023-05-14T04:01:04;21.37;;;20.27;;
2622;SDS011;1321;48.690;9.022;2023-05-14T04:03:32;20.07;;;19.00;;
2622;SDS011;1321;48.690;9.022;2023-05-14T04:06:00;21.57;;;20.40;;
2622;SDS011;1321;48.690;9.022;2023-05-14T04:08:29;20.53;;;19.53;;
2622;SDS011;1321;48.690;9.022;2023-05-14T04:10:57;21.93;;;20.57;;
2622;SDS011;1321;48.690;9.022;2023-05-14T04:13:26;21.10;;;20.00;;
2622;SDS011;1321;48.690;9.022;2023-05-14T04:15:54;21.57;;;20.40;;
2622;SDS011;1321;48.690;9.022;2023-05-14T04:18:23;21.53;;;20.33;;
2622;SDS011;1321;48.690;9.022;2023-05-14T04:20:51;21.80;;;20.40;;
2622;SDS011;1321;48.690;9.022;2023-05-14T04:23:20;21.27;;;20.07;;
2622;SDS011;1321;48.690;9.022;2023-05-14T04:25:48;21.20;;;20.10;;
2622;SDS011;1321;48.690;9.022;2023-05-14T04:28:16;22.70;;;21.40;;
2622;SDS011;1321;48.690;9.022;2023-05-14T04:30:46;22.70;;;21.43;;
2622;SDS011;1321;48.690;9.022;2023-05-14T04:33:15;22.40;;;21.10;;
2622;SDS011;1321;48.690;9.022;2023-05-14T04:35:43;22.53;;;21.20;;
2622;SDS011;1321;48.690;9.022;2023-05-14T04:38:11;21.97;;;20.77;;
2622;SDS011;1321;48.690;9.022;2023-05-14T04:40:40;21.33;;;20.23;;
2622;SDS011;1321;48.690;9.022;2023-05-14T04:43:08;22.33;;;21.03;;
2622;SDS011;1321;48.690;9.022;2023-05-14T04:45:37;21.97;;;20.67;;
2622;SDS011;1321;48.690;9.022;2023-05-14T04:48:07;22.27;;;20.93;;
2622;SDS011;1321;48.690;9.022;2023-05-14T04:50:36;22.20;;;21.00;;
2622;SDS011;1321;48.690;9.022;2023-05-14T04:53:04;22.50;;;21.30;;
2622;SDS011;1321;48.690;9.022;2023-05-14T04:55:32;21.90;;;20.73;;
2622;SDS011;1321;48.690;9.022;2023-05-14T04:58:00;22.33;;;21.13;;
2622;SDS011;1321;48.690;9.022;2023-05-14T05:00:29;21.40;;;20.20;;
2622;SDS011;1321;48.690;9.022;2023-05-14T05:02:57;22.00;;;20.70;;
2622;SDS011;1321;48.690;9.022;2023-05-14T05:05:27;21.93;;;20.63;;
2622;SDS011;1321;48.690;9.022;2023-05-14T05:07:55;22.07;;;20.70;;
2622;SDS011;1321;48.690;9.022;2023-05-14T05:10:23;21.33;;;20.23;;
2622;SDS011;1321;48.690;9.022;2023-05-14T05:12:52;21.70;;;20.60;;
2622;SDS011;1321;48.690;9.022;2023-05-14T05:15:20;22.17;;;21.00;;
2622;SDS011;1321;48.690;9.022;2023-05-14T05:17:51;22.00;;;20.90;;
2622;SDS011;1321;48.690;9.022;2023-05-14T05:20:19;22.33;;;21.00;;
2622;SDS011;1321;48.690;9.022;2023-05-14T05:22:50;22.70;;;21.40;;
2622;SDS011;1321;48.690;9.022;2023-05-14T05:25:18;21.93;;;20.73;;
2622;SDS011;1321;48.690;9.022;2023-05-14T05:27:46;22.53;;;21.20;;
2622;SDS011;1321;48.690;9.022;2023-05-14T05:30:15;23.43;;;22.03;;
2622;SDS011;1321;48.690;9.022;2023-05-14T05:32:43;21.80;;;20.50;;
2622;SDS011;1321;48.690;9.022;2023-05-14T05:35:11;23.17;;;21.77;;
2622;SDS011;1321;48.690;9.022;2023-05-14T05:37:39;23.20;;;21.90;;
2622;SDS011;1321;48.690;9.022;2023-05-14T05:40:12;23.50;;;22.00;;
2622;SDS011;1321;48.690;9.022;2023-05-14T05:42:41;21.70;;;20.50;;
2622;SDS011;1321;48.690;9.022;2023-05-14T05:45:09;21.77;;;20.67;;
2622;SDS011;1321;48.690;9.022;2023-05-14T05:47:37;24.17;;;22.58;;
2622;SDS011;1321;48.690;9.022;2023-05-14T05:50:06;24.50;;;22.98;;
2622;SDS011;1321;48.690;9.022;2023-05-14T05:52:35;23.40;;;22.10;;
2622;SDS011;1321;48.690;9.022;2023-05-14T05:55:04;24.20;;;22.77;;
2622;SDS011;1321;48.690;9.022;2023-05-14T05:57:34;23.90;;;22.23;;
2622;SDS011;1321;48.690;9.022;2023-05-14T06:00:02;23.67;;;22.03;;
2622;SDS011;1321;48.690;9.022;2023-05-14T06:02:38;22.90;;;21.60;;
2622;SDS011;1321;48.690;9.022;2023-05-14T06:05:07;22.27;;;21.00;;
2622;SDS011;1321;48.690;9.022;2023-05-14T06:07:36;22.07;;;20.77;;
2622;SDS011;1321;48.690;9.022;2023-05-14T06:10:05;23.03;;;21.73;;
2622;SDS011;1321;48.690;9.022;2023-05-14T06:12:35;23.80;;;21.93;;
2622;SDS011;1321;48.690;9.022;2023-05-14T06:15:03;22.37;;;21.17;;
2622;SDS011;1321;48.690;9.022;2023-05-14T06:17:32;23.53;;;22.13;;
2622;SDS011;1321;48.690;9.022;2023-05-14T06:20:00;23.03;;;21.90;;
2622;SDS011;1321;48.690;9.022;2023-05-14T06:22:30;22.63;;;21.33;;
2622;SDS011;1321;48.690;9.022;2023-05-14T06:24:58;22.33;;;21.03;;
2622;SDS011;1321;48.690;9.022;2023-05-14T06:27:27;23.17;;;21.77;;
2622;SDS011;1321;48.690;9.022;2023-05-14T06:29:56;22.60;;;21.30;;
2622;SDS011;1321;48.690;9.022;2023-05-14T06:32:24;21.83;;;20.63;;
2622;SDS011;1321;48.690;9.022;2023-05-14T06:34:55;22.00;;;20.80;;
2622;SDS011;1321;48.690;9.022;2023-05-14T06:37:23;22.77;;;21.40;;
2622;SDS011;1321;48.690;9.022;2023-05-14T06:39:52;22.17;;;20.97;;
2622;SDS011;1321;48.690;9.022;2023-05-14T06:42:23;21.00;;;20.00;;
2622;SDS011;1321;48.690;9.022;2023-05-14T06:44:51;21.60;;;20.40;;
2622;SDS011;1321;48.690;9.022;2023-05-14T06:47:21;22.23;;;21.03;;
2622;SDS011;1321;48.690;9.022;2023-05-14T06:49:49;22.17;;;20.97;;
2622;SDS011;1321;48.690;9.022;2023-05-14T06:52:17;22.43;;;21.10;;
2622;SDS011;1321;48.690;9.022;2023-05-14T06:54:45;23.10;;;21.60;;
2622;SDS011;1321;48.690;9.022;2023-05-14T06:57:14;27.93;;;25.43;;
2622;SDS011;1321;48.690;9.022;2023-05-14T06:59:42;25.70;;;23.97;;
2622;SDS011;1321;48.690;9.022;2023-05-14T07:02:10;22.10;;;20.73;;
2622;SDS011;1321;48.690;9.022;2023-05-14T07:04:40;21.90;;;20.60;;
2622;SDS011;1321;48.690;9.022;2023-05-14T07:07:08;22.40;;;21.30;;
2622;SDS011;1321;48.690;9.022;2023-05-14T07:09:40;23.37;;;21.97;;
2622;SDS011;1321;48.690;9.022;2023-05-14T07:12:09;22.70;;;21.27;;
2622;SDS011;1321;48.690;9.022;2023-05-14T07:14:40;21.50;;;20.33;;
2622;SDS011;1321;48.690;9.022;2023-05-14T07:17:11;22.73;;;21.33;;
2622;SDS011;1321;48.690;9.022;2023-05-14T07:19:41;21.73;;;20.43;;
2622;SDS011;1321;48.690;9.022;2023-05-14T07:22:09;21.60;;;20.40;;
2622;SDS011;1321;48.690;9.022;2023-05-14T07:24:37;22.70;;;21.37;;
2622;SDS011;1321;48.690;9.022;2023-05-14T07:27:06;22.03;;;20.83;;
2622;SDS011;1321;48.690;9.022;2023-05-14T07:29:34;22.70;;;21.30;;
2622;SDS011;1321;48.690;9.022;2023-05-14T07:32:03;24.20;;;22.77;;
2622;SDS011;1321;48.690;9.022;2023-05-14T07:34:31;22.60;;;21.40;;
2622;SDS011;1321;48.690;9.022;2023-05-14T07:37:01;23.20;;;21.90;;
2622;SDS011;1321;48.690;9.022;2023-05-14T07:39:29;22.63;;;21.30;;
2622;SDS011;1321;48.690;9.022;2023-05-14T07:41:57;22.93;;;21.43;;
2622;SDS011;1321;48.690;9.022;2023-05-14T07:44:26;26.57;;;24.40;;
2622;SDS011;1321;48.690;9.022;2023-05-14T07:46:54;22.93;;;21.57;;
2622;SDS011;1321;48.690;9.022;2023-05-14T07:49:22;21.77;;;20.67;;
2622;SDS011;1321;48.690;9.022;2023-05-14T07:51:52;22.13;;;21.10;;
2622;SDS011;1321;48.690;9.022;2023-05-14T07:54:21;23.73;;;22.40;;
2622;SDS011;1321;48.690;9.022;2023-05-14T07:56:49;22.43;;;21.23;;
2622;SDS011;1321;48.690;9.022;2023-05-14T07:59:18;24.33;;;22.80;;
2622;SDS011;1321;48.690;9.022;2023-05-14T08:01:46;23.87;;;22.57;;
2622;SDS011;1321;48.690;9.022;2023-05-14T08:04:15;24.43;;;23.07;;
2622;SDS011;1321;48.690;9.022;2023-05-14T08:06:43;24.43;;;22.93;;
2622;SDS011;1321;48.690;9.022;2023-05-14T08:09:11;23.83;;;22.53;;
2622;SDS011;1321;48.690;9.022;2023-05-14T08:11:41;23.93;;;22.43;;
2622;SDS011;1321;48.690;9.022;2023-05-14T08:14:09;23.83;;;22.50;;
2622;SDS011;1321;48.690;9.022;2023-05-14T08:16:37;22.70;;;21.60;;
2622;SDS011;1321;48.690;9.022;2023-05-14T08:19:05;23.90;;;22.60;;
2622;SDS011;1321;48.690;9.022;2023-05-14T08:21:34;24.50;;;23.20;;
2622;SDS011;1321;48.690;9.022;2023-05-14T08:24:02;23.93;;;22.60;;
2622;SDS011;1321;48.690;9.022;2023-05-14T08:26:30;23.67;;;22.43;;
2622;SDS011;1321;48.690;9.022;2023-05-14T08:29:00;25.13;;;23.63;;
2622;SDS011;1321;48.690;9.022;2023-05-14T08:31:28;24.17;;;22.63;;
2622;SDS011;1321;48.690;9.022;2023-05-14T08:33:56;25.40;;;23.40;;
2622;SDS011;1321;48.690;9.022;2023-05-14T08:36:25;23.60;;;22.20;;
2622;SDS011;1321;48.690;9.022;2023-05-14T08:38:53;24.80;;;23.30;;
2622;SDS011;1321;48.690;9.022;2023-05-14T08:41:21;22.90;;;21.70;;
2622;SDS011;1321;48.690;9.022;2023-05-14T08:43:52;24.10;;;22.80;;
2622;SDS011;1321;48.690;9.022;2023-05-14T08:46:29;24.00;;;22.50;;
2622;SDS011;1321;48.690;9.022;2023-05-14T08:48:59;24.30;;;22.90;;
2622;SDS011;1321;48.690;9.022;2023-05-14T08:51:36;24.10;;;22.70;;
2622;SDS011;1321;48.690;9.022;2023-05-14T08:54:23;24.00;;;22.60;;
2622;SDS011;1321;48.690;9.022;2023-05-14T08:56:52;24.40;;;23.00;;
2622;SDS011;1321;48.690;9.022;2023-05-14T08:59:20;24.37;;;22.87;;
2622;SDS011;1321;48.690;9.022;2023-05-14T09:01:51;24.83;;;23.43;;
2622;SDS011;1321;48.690;9.022;2023-05-14T09:04:26;25.27;;;23.77;;
2622;SDS011;1321;48.690;9.022;2023-05-14T09:07:09;24.27;;;22.83;;
2622;SDS011;1321;48.690;9.022;2023-05-14T09:09:37;23.93;;;22.67;;
2622;SDS011;1321;48.690;9.022;2023-05-14T09:12:07;24.13;;;22.87;;
2622;SDS011;1321;48.690;9.022;2023-05-14T09:14:36;24.20;;;22.80;;
2622;SDS011;1321;48.690;9.022;2023-05-14T09:17:07;24.23;;;22.93;;
2622;SDS011;1321;48.690;9.022;2023-05-14T09:24:05;24.40;;;23.10;;
2622;SDS011;1321;48.690;9.022;2023-05-14T09:30:45;23.00;;;21.70;;
2622;SDS011;1321;48.690;9.022;2023-05-14T09:33:26;22.80;;;21.60;;
2622;SDS011;1321;48.690;9.022;2023-05-14T09:35:59;23.50;;;22.20;;
2622;SDS011;1321;48.690;9.022;2023-05-14T09:38:28;23.83;;;22.53;;
2622;SDS011;1321;48.690;9.022;2023-05-14T09:40:59;23.70;;;22.50;;
2622;SDS011;1321;48.690;9.022;2023-05-14T09:43:51;23.83;;;22.60;;
2622;SDS011;1321;48.690;9.022;2023-05-14T09:46:20;23.03;;;21.77;;
2622;SDS011;1321;48.690;9.022;2023-05-14T09:55:45;21.90;;;20.80;;
2622;SDS011;1321;48.690;9.022;2023-05-14T09:58:14;22.47;;;21.30;;
2622;SDS011;1321;48.690;9.022;2023-05-14T10:04:43;24.80;;;23.40;;
2622;SDS011;1321;48.690;9.022;2023-05-14T10:11:25;24.20;;;22.50;;
2622;SDS011;1321;48.690;9.022;2023-05-14T10:14:57;22.80;;;21.50;;
2622;SDS011;1321;48.690;9.022;2023-05-14T10:17:30;23.30;;;22.10;;
2622;SDS011;1321;48.690;9.022;2023-05-14T10:20:01;23.07;;;21.77;;
2622;SDS011;1321;48.690;9.022;2023-05-14T10:22:34;22.80;;;21.70;;
2622;SDS011;1321;48.690;9.022;2023-05-14T10:25:03;22.03;;;20.93;;
2622;SDS011;1321;48.690;9.022;2023-05-14T10:27:33;20.47;;;19.67;;
2622;SDS011;1321;48.690;9.022;2023-05-14T10:30:04;21.10;;;20.20;;
2622;SDS011;1321;48.690;9.022;2023-05-14T10:32:38;20.93;;;20.03;;
2622;SDS011;1321;48.690;9.022;2023-05-14T10:35:16;20.73;;;19.80;;
2622;SDS011;1321;48.690;9.022;2023-05-14T10:37:50;20.73;;;19.83;;
2622;SDS011;1321;48.690;9.022;2023-05-14T10:40:19;20.23;;;19.33;;
2622;SDS011;1321;48.690;9.022;2023-05-14T10:42:53;19.90;;;19.10;;
2622;SDS011;1321;48.690;9.022;2023-05-14T10:45:26;20.20;;;19.40;;
2622;SDS011;1321;48.690;9.022;2023-05-14T10:47:55;20.97;;;20.00;;
2622;SDS011;1321;48.690;9.022;2023-05-14T10:50:24;20.17;;;19.37;;
2622;SDS011;1321;48.690;9.022;2023-05-14T10:52:53;20.43;;;19.63;;
2622;SDS011;1321;48.690;9.022;2023-05-14T10:55:23;21.23;;;20.23;;
2622;SDS011;1321;48.690;9.022;2023-05-14T10:57:53;21.23;;;20.33;;
2622;SDS011;1321;48.690;9.022;2023-05-14T11:00:26;22.13;;;21.13;;
2622;SDS011;1321;48.690;9.022;2023-05-14T11:02:55;22.10;;;21.10;;
2622;SDS011;1321;48.690;9.022;2023-05-14T11:05:23;22.20;;;21.20;;
2622;SDS011;1321;48.690;9.022;2023-05-14T11:07:53;21.50;;;20.60;;
2622;SDS011;1321;48.690;9.022;2023-05-14T11:10:24;21.87;;;20.77;;
2622;SDS011;1321;48.690;9.022;2023-05-14T11:12:56;22.30;;;21.20;;
2622;SDS011;1321;48.690;9.022;2023-05-14T11:15:25;21.70;;;20.50;;
2622;SDS011;1321;48.690;9.022;2023-05-14T11:17:53;22.87;;;21.77;;
2622;SDS011;1321;48.690;9.022;2023-05-14T11:20:22;21.40;;;20.40;;
2622;SDS011;1321;48.690;9.022;2023-05-14T11:22:50;20.53;;;19.60;;
2622;SDS011;1321;48.690;9.022;2023-05-14T11:25:18;21.13;;;20.23;;
2622;SDS011;1321;48.690;9.022;2023-05-14T11:27:48;21.50;;;20.50;;
2622;SDS011;1321;48.690;9.022;2023-05-14T11:30:18;20.83;;;19.93;;
2622;SDS011;1321;48.690;9.022;2023-05-14T11:32:48;20.00;;;19.20;;
2622;SDS011;1321;48.690;9.022;2023-05-14T11:35:17;20.70;;;19.80;;
2622;SDS011;1321;48.690;9.022;2023-05-14T11:37:48;20.07;;;19.17;;
2622;SDS011;1321;48.690;9.022;2023-05-14T11:40:18;19.43;;;18.60;;
2622;SDS011;1321;48.690;9.022;2023-05-14T11:42:48;19.37;;;18.67;;
2622;SDS011;1321;48.690;9.022;2023-05-14T11:45:24;20.10;;;19.13;;
2622;SDS011;1321;48.690;9.022;2023-05-14T11:47:55;19.43;;;18.63;;
2622;SDS011;1321;48.690;9.022;2023-05-14T11:50:23;19.30;;;18.57;;
2622;SDS011;1321;48.690;9.022;2023-05-14T11:52:54;21.13;;;20.03;;
2622;SDS011;1321;48.690;9.022;2023-05-14T11:55:23;22.53;;;21.50;;
2622;SDS011;1321;48.690;9.022;2023-05-14T11:57:51;23.50;;;22.30;;
2622;SDS011;1321;48.690;9.022;2023-05-14T12:00:20;21.43;;;20.43;;
2622;SDS011;1321;48.690;9.022;2023-05-14T12:02:51;19.73;;;18.83;;
2622;SDS011;1321;48.690;9.022;2023-05-14T12:05:20;21.00;;;20.00;;
2622;SDS011;1321;48.690;9.022;2023-05-14T12:07:49;21.73;;;20.60;;
2622;SDS011;1321;48.690;9.022;2023-05-14T12:10:17;21.80;;;20.70;;
2622;SDS011;1321;48.690;9.022;2023-05-14T12:12:46;21.17;;;20.17;;
2622;SDS011;1321;48.690;9.022;2023-05-14T12:15:15;20.53;;;19.63;;
2622;SDS011;1321;48.690;9.022;2023-05-14T12:17:48;20.43;;;19.50;;
2622;SDS011;1321;48.690;9.022;2023-05-14T12:20:18;20.23;;;19.33;;
2622;SDS011;1321;48.690;9.022;2023-05-14T12:22:47;20.93;;;19.57;;
2622;SDS011;1321;48.690;9.022;2023-05-14T12:25:15;20.80;;;19.80;;
2622;SDS011;1321;48.690;9.022;2023-05-14T12:27:44;20.90;;;19.70;;
2622;SDS011;1321;48.690;9.022;2023-05-14T12:30:12;22.13;;;20.93;;
2622;SDS011;1321;48.690;9.022;2023-05-14T12:32:43;20.27;;;19.30;;
2622;SDS011;1321;48.690;9.022;2023-05-14T12:35:12;20.37;;;19.37;;
2622;SDS011;1321;48.690;9.022;2023-05-14T12:37:41;20.77;;;19.80;;
2622;SDS011;1321;48.690;9.022;2023-05-14T12:40:10;20.73;;;19.23;;
2622;SDS011;1321;48.690;9.022;2023-05-14T12:42:38;20.23;;;19.23;;
2622;SDS011;1321;48.690;9.022;2023-05-14T12:45:07;20.10;;;19.00;;
2622;SDS011;1321;48.690;9.022;2023-05-14T12:47:35;20.50;;;19.40;;
2622;SDS011;1321;48.690;9.022;2023-05-14T12:50:04;19.60;;;18.67;;
2622;SDS011;1321;48.690;9.022;2023-05-14T12:52:33;19.30;;;18.50;;
2622;SDS011;1321;48.690;9.022;2023-05-14T12:55:07;18.97;;;18.17;;
2622;SDS011;1321;48.690;9.022;2023-05-14T12:57:35;20.13;;;19.10;;
2622;SDS011;1321;48.690;9.022;2023-05-14T13:00:05;19.37;;;18.47;;
2622;SDS011;1321;48.690;9.022;2023-05-14T13:02:39;19.83;;;18.93;;
2622;SDS011;1321;48.690;9.022;2023-05-14T13:05:09;19.43;;;18.53;;
2622;SDS011;1321;48.690;9.022;2023-05-14T13:07:38;19.33;;;18.43;;
2622;SDS011;1321;48.690;9.022;2023-05-14T13:10:08;19.50;;;18.47;;
2622;SDS011;1321;48.690;9.022;2023-05-14T13:12:37;19.40;;;18.50;;
2622;SDS011;1321;48.690;9.022;2023-05-14T13:15:05;19.13;;;18.20;;
2622;SDS011;1321;48.690;9.022;2023-05-14T13:17:34;18.67;;;17.67;;
2622;SDS011;1321;48.690;9.022;2023-05-14T13:20:03;19.87;;;18.93;;
2622;SDS011;1321;48.690;9.022;2023-05-14T13:22:32;19.20;;;18.30;;
2622;SDS011;1321;48.690;9.022;2023-05-14T13:25:00;19.80;;;19.00;;
2622;SDS011;1321;48.690;9.022;2023-05-14T13:27:31;20.50;;;19.57;;
2622;SDS011;1321;48.690;9.022;2023-05-14T13:30:01;20.60;;;19.57;;
2622;SDS011;1321;48.690;9.022;2023-05-14T13:32:29;19.70;;;18.80;;
2622;SDS011;1321;48.690;9.022;2023-05-14T13:34:57;20.10;;;19.30;;
2622;SDS011;1321;48.690;9.022;2023-05-14T13:37:25;19.83;;;18.93;;
2622;SDS011;1321;48.690;9.022;2023-05-14T13:39:53;20.43;;;19.43;;
2622;SDS011;1321;48.690;9.022;2023-05-14T13:42:21;21.30;;;20.30;;
2622;SDS011;1321;48.690;9.022;2023-05-14T13:44:51;21.07;;;20.17;;
2622;SDS011;1321;48.690;9.022;2023-05-14T13:47:19;21.10;;;20.10;;
2622;SDS011;1321;48.690;9.022;2023-05-14T13:49:47;20.57;;;19.60;;
2622;SDS011;1321;48.690;9.022;2023-05-14T13:52:15;20.50;;;19.60;;
2622;SDS011;1321;48.690;9.022;2023-05-14T13:54:44;20.33;;;19.47;;
2622;SDS011;1321;48.690;9.022;2023-05-14T13:57:12;19.70;;;19.00;;
2622;SDS011;1321;48.690;9.022;2023-05-14T13:59:40;19.80;;;19.00;;
2622;SDS011;1321;48.690;9.022;2023-05-14T14:02:10;21.20;;;20.20;;
2622;SDS011;1321;48.690;9.022;2023-05-14T14:04:38;19.43;;;18.63;;
2622;SDS011;1321;48.690;9.022;2023-05-14T14:07:06;19.73;;;19.03;;
2622;SDS011;1321;48.690;9.022;2023-05-14T14:09:35;20.13;;;19.17;;
2622;SDS011;1321;48.690;9.022;2023-05-14T14:12:03;19.10;;;18.40;;
2622;SDS011;1321;48.690;9.022;2023-05-14T14:14:32;18.83;;;18.13;;
2622;SDS011;1321;48.690;9.022;2023-05-14T14:17:01;19.27;;;18.27;;
2622;SDS011;1321;48.690;9.022;2023-05-14T14:19:30;18.80;;;18.10;;
2622;SDS011;1321;48.690;9.022;2023-05-14T14:21:58;18.90;;;18.20;;
2622;SDS011;1321;48.690;9.022;2023-05-14T14:24:26;19.77;;;18.97;;
2622;SDS011;1321;48.690;9.022;2023-05-14T14:26:55;19.67;;;18.87;;
2622;SDS011;1321;48.690;9.022;2023-05-14T14:29:23;19.27;;;18.57;;
2622;SDS011;1321;48.690;9.022;2023-05-14T14:31:51;19.50;;;18.80;;
2622;SDS011;1321;48.690;9.022;2023-05-14T14:34:19;19.30;;;18.60;;
2622;SDS011;1321;48.690;9.022;2023-05-14T14:36:48;19.30;;;18.50;;
2622;SDS011;1321;48.690;9.022;2023-05-14T14:39:17;19.30;;;18.40;;
2622;SDS011;1321;48.690;9.022;2023-05-14T14:41:45;18.67;;;17.97;;
2622;SDS011;1321;48.690;9.022;2023-05-14T14:44:13;19.03;;;18.33;;
2622;SDS011;1321;48.690;9.022;2023-05-14T14:46:41;17.30;;;16.73;;
2622;SDS011;1321;48.690;9.022;2023-05-14T14:49:10;18.20;;;17.50;;
2622;SDS011;1321;48.690;9.022;2023-05-14T14:51:38;17.93;;;17.33;;
2622;SDS011;1321;48.690;9.022;2023-05-14T14:54:07;18.07;;;17.47;;
2622;SDS011;1321;48.690;9.022;2023-05-14T14:56:36;18.80;;;18.20;;
2622;SDS011;1321;48.690;9.022;2023-05-14T14:59:04;18.43;;;17.40;;
2622;SDS011;1321;48.690;9.022;2023-05-14T15:01:32;18.33;;;17.73;;
2622;SDS011;1321;48.690;9.022;2023-05-14T15:04:00;18.60;;;17.80;;
2622;SDS011;1321;48.690;9.022;2023-05-14T15:06:29;18.87;;;18.17;;
2622;SDS011;1321;48.690;9.022;2023-05-14T15:08:57;18.67;;;17.97;;
2622;SDS011;1321;48.690;9.022;2023-05-14T15:11:27;18.77;;;17.90;;
2622;SDS011;1321;48.690;9.022;2023-05-14T15:14:13;17.67;;;16.97;;
2622;SDS011;1321;48.690;9.022;2023-05-14T15:16:41;18.07;;;17.27;;
2622;SDS011;1321;48.690;9.022;2023-05-14T15:19:10;18.07;;;17.37;;
2622;SDS011;1321;48.690;9.022;2023-05-14T15:21:38;19.43;;;18.73;;
2622;SDS011;1321;48.690;9.022;2023-05-14T15:24:09;18.80;;;18.10;;
2622;SDS011;1321;48.690;9.022;2023-05-14T15:26:40;18.30;;;17.40;;